sensor_id;sensor_type;location;lat;lon;timestamp;P1;durP1;ratioP1;P2;durP2;ratioP2
4074;SDS011;2052;53.522;9.806;2022-12-18T00:02:24;20.40;;;10.47;;
4074;SDS011;2052;53.522;9.806;2022-12-18T00:04:51;18.63;;;10.80;;
4074;SDS011;2052;53.522;9.806;2022-12-18T00:07:17;24.73;;;11.67;;
4074;SDS011;2052;53.522;9.806;2022-12-18T00:09:45;17.17;;;9.67;;
4074;SDS011;2052;53.522;9.806;2022-12-18T00:12:12;22.27;;;9.80;;
4074;SDS011;2052;53.522;9.806;2022-12-18T00:14:38;16.50;;;10.13;;
4074;SDS011;2052;53.522;9.806;2022-12-18T00:17:05;19.23;;;9.80;;
4074;SDS011;2052;53.522;9.806;2022-12-18T00:19:31;25.37;;;11.10;;
4074;SDS011;2052;53.522;9.806;2022-12-18T00:21:58;22.83;;;9.50;;
4074;SDS011;2052;53.522;9.806;2022-12-18T00:24:24;22.23;;;10.70;;
4074;SDS011;2052;53.522;9.806;2022-12-18T00:26:52;22.87;;;10.67;;
4074;SDS011;2052;53.522;9.806;2022-12-18T00:29:19;24.10;;;10.90;;
4074;SDS011;2052;53.522;9.806;2022-12-18T00:31:45;17.37;;;8.50;;
4074;SDS011;2052;53.522;9.806;2022-12-18T00:34:13;19.63;;;9.90;;
4074;SDS011;2052;53.522;9.806;2022-12-18T00:36:40;18.07;;;9.77;;
4074;SDS011;2052;53.522;9.806;2022-12-18T00:39:07;18.00;;;9.13;;
4074;SDS011;2052;53.522;9.806;2022-12-18T00:41:34;22.93;;;11.07;;
4074;SDS011;2052;53.522;9.806;2022-12-18T00:44:19;22.80;;;10.90;;
4074;SDS011;2052;53.522;9.806;2022-12-18T00:46:46;20.60;;;10.53;;
4074;SDS011;2052;53.522;9.806;2022-12-18T00:49:14;24.47;;;11.50;;
4074;SDS011;2052;53.522;9.806;2022-12-18T00:51:41;25.77;;;12.77;;
4074;SDS011;2052;53.522;9.806;2022-12-18T00:54:07;16.30;;;11.80;;
4074;SDS011;2052;53.522;9.806;2022-12-18T00:56:35;22.20;;;12.50;;
4074;SDS011;2052;53.522;9.806;2022-12-18T00:59:02;27.83;;;11.60;;
4074;SDS011;2052;53.522;9.806;2022-12-18T01:01:30;21.77;;;11.23;;
4074;SDS011;2052;53.522;9.806;2022-12-18T01:03:57;33.90;;;10.97;;
4074;SDS011;2052;53.522;9.806;2022-12-18T01:06:24;21.03;;;10.50;;
4074;SDS011;2052;53.522;9.806;2022-12-18T01:08:50;22.30;;;10.73;;
4074;SDS011;2052;53.522;9.806;2022-12-18T01:11:18;24.83;;;10.90;;
4074;SDS011;2052;53.522;9.806;2022-12-18T01:13:45;20.40;;;10.93;;
4074;SDS011;2052;53.522;9.806;2022-12-18T01:16:12;21.73;;;10.20;;
4074;SDS011;2052;53.522;9.806;2022-12-18T01:18:41;17.47;;;10.30;;
4074;SDS011;2052;53.522;9.806;2022-12-18T01:21:08;17.10;;;9.53;;
4074;SDS011;2052;53.522;9.806;2022-12-18T01:23:35;20.93;;;9.97;;
4074;SDS011;2052;53.522;9.806;2022-12-18T01:26:05;15.80;;;9.10;;
4074;SDS011;2052;53.522;9.806;2022-12-18T01:28:32;19.93;;;9.77;;
4074;SDS011;2052;53.522;9.806;2022-12-18T01:31:08;19.17;;;10.33;;
4074;SDS011;2052;53.522;9.806;2022-12-18T01:33:36;15.97;;;8.37;;
4074;SDS011;2052;53.522;9.806;2022-12-18T01:36:04;17.67;;;9.10;;
4074;SDS011;2052;53.522;9.806;2022-12-18T01:38:31;20.07;;;11.13;;
4074;SDS011;2052;53.522;9.806;2022-12-18T01:40:58;21.53;;;10.03;;
4074;SDS011;2052;53.522;9.806;2022-12-18T01:46:16;22.00;;;12.13;;
4074;SDS011;2052;53.522;9.806;2022-12-18T01:48:43;21.60;;;12.00;;
4074;SDS011;2052;53.522;9.806;2022-12-18T01:51:12;21.53;;;11.43;;
4074;SDS011;2052;53.522;9.806;2022-12-18T01:53:40;21.90;;;13.00;;
4074;SDS011;2052;53.522;9.806;2022-12-18T01:56:08;26.37;;;12.40;;
4074;SDS011;2052;53.522;9.806;2022-12-18T01:58:36;29.33;;;12.20;;
4074;SDS011;2052;53.522;9.806;2022-12-18T02:01:07;21.80;;;12.10;;
4074;SDS011;2052;53.522;9.806;2022-12-18T02:03:33;21.43;;;12.10;;
4074;SDS011;2052;53.522;9.806;2022-12-18T02:06:00;19.80;;;10.40;;
4074;SDS011;2052;53.522;9.806;2022-12-18T02:08:36;27.53;;;11.43;;
4074;SDS011;2052;53.522;9.806;2022-12-18T02:11:06;17.90;;;10.07;;
4074;SDS011;2052;53.522;9.806;2022-12-18T02:13:37;16.03;;;10.47;;
4074;SDS011;2052;53.522;9.806;2022-12-18T02:16:09;18.00;;;10.63;;
4074;SDS011;2052;53.522;9.806;2022-12-18T02:18:41;24.20;;;11.33;;
4074;SDS011;2052;53.522;9.806;2022-12-18T02:21:13;24.87;;;12.20;;
4074;SDS011;2052;53.522;9.806;2022-12-18T02:23:47;19.40;;;11.00;;
4074;SDS011;2052;53.522;9.806;2022-12-18T02:26:19;23.27;;;10.97;;
4074;SDS011;2052;53.522;9.806;2022-12-18T02:28:49;26.43;;;11.00;;
4074;SDS011;2052;53.522;9.806;2022-12-18T02:31:21;28.23;;;13.53;;
4074;SDS011;2052;53.522;9.806;2022-12-18T02:33:51;20.47;;;10.83;;
4074;SDS011;2052;53.522;9.806;2022-12-18T02:36:20;28.73;;;11.80;;
4074;SDS011;2052;53.522;9.806;2022-12-18T02:38:48;20.70;;;12.07;;
4074;SDS011;2052;53.522;9.806;2022-12-18T02:41:16;16.47;;;11.10;;
4074;SDS011;2052;53.522;9.806;2022-12-18T02:43:47;20.80;;;11.20;;
4074;SDS011;2052;53.522;9.806;2022-12-18T02:48:57;32.73;;;12.40;;
4074;SDS011;2052;53.522;9.806;2022-12-18T02:51:29;25.90;;;12.37;;
4074;SDS011;2052;53.522;9.806;2022-12-18T02:54:00;20.50;;;10.83;;
4074;SDS011;2052;53.522;9.806;2022-12-18T02:56:34;20.03;;;9.67;;
4074;SDS011;2052;53.522;9.806;2022-12-18T02:59:04;17.47;;;9.97;;
4074;SDS011;2052;53.522;9.806;2022-12-18T03:01:33;24.13;;;12.53;;
4074;SDS011;2052;53.522;9.806;2022-12-18T03:04:04;22.73;;;11.63;;
4074;SDS011;2052;53.522;9.806;2022-12-18T03:06:35;21.43;;;11.07;;
4074;SDS011;2052;53.522;9.806;2022-12-18T03:09:06;21.27;;;11.20;;
4074;SDS011;2052;53.522;9.806;2022-12-18T03:11:36;19.20;;;10.47;;
4074;SDS011;2052;53.522;9.806;2022-12-18T03:14:24;20.87;;;10.17;;
4074;SDS011;2052;53.522;9.806;2022-12-18T03:16:52;17.67;;;10.10;;
4074;SDS011;2052;53.522;9.806;2022-12-18T03:19:21;20.33;;;10.50;;
4074;SDS011;2052;53.522;9.806;2022-12-18T03:21:50;23.80;;;12.33;;
4074;SDS011;2052;53.522;9.806;2022-12-18T03:24:19;22.77;;;12.07;;
4074;SDS011;2052;53.522;9.806;2022-12-18T03:26:47;25.50;;;13.10;;
4074;SDS011;2052;53.522;9.806;2022-12-18T03:29:16;22.40;;;12.70;;
4074;SDS011;2052;53.522;9.806;2022-12-18T03:31:48;21.63;;;11.90;;
4074;SDS011;2052;53.522;9.806;2022-12-18T03:34:19;18.60;;;10.70;;
4074;SDS011;2052;53.522;9.806;2022-12-18T03:36:48;24.40;;;10.97;;
4074;SDS011;2052;53.522;9.806;2022-12-18T03:39:15;24.33;;;10.50;;
4074;SDS011;2052;53.522;9.806;2022-12-18T03:41:43;22.33;;;12.37;;
4074;SDS011;2052;53.522;9.806;2022-12-18T03:44:11;24.77;;;12.17;;
4074;SDS011;2052;53.522;9.806;2022-12-18T03:46:41;28.13;;;12.80;;
4074;SDS011;2052;53.522;9.806;2022-12-18T03:49:12;27.40;;;13.20;;
4074;SDS011;2052;53.522;9.806;2022-12-18T03:51:42;22.10;;;12.07;;
4074;SDS011;2052;53.522;9.806;2022-12-18T03:54:12;27.73;;;11.03;;
4074;SDS011;2052;53.522;9.806;2022-12-18T03:56:40;25.63;;;12.03;;
4074;SDS011;2052;53.522;9.806;2022-12-18T03:59:10;21.70;;;11.17;;
4074;SDS011;2052;53.522;9.806;2022-12-18T04:01:38;15.03;;;9.50;;
4074;SDS011;2052;53.522;9.806;2022-12-18T04:04:06;18.83;;;10.40;;
4074;SDS011;2052;53.522;9.806;2022-12-18T04:06:36;24.53;;;11.60;;
4074;SDS011;2052;53.522;9.806;2022-12-18T04:09:03;25.13;;;11.40;;
4074;SDS011;2052;53.522;9.806;2022-12-18T04:11:30;16.70;;;10.00;;
4074;SDS011;2052;53.522;9.806;2022-12-18T04:13:57;18.33;;;10.20;;
4074;SDS011;2052;53.522;9.806;2022-12-18T04:16:24;22.40;;;10.93;;
4074;SDS011;2052;53.522;9.806;2022-12-18T04:18:51;19.37;;;9.53;;
4074;SDS011;2052;53.522;9.806;2022-12-18T04:21:17;17.03;;;9.17;;
4074;SDS011;2052;53.522;9.806;2022-12-18T04:23:45;27.40;;;10.77;;
4074;SDS011;2052;53.522;9.806;2022-12-18T04:26:12;17.13;;;9.27;;
4074;SDS011;2052;53.522;9.806;2022-12-18T04:28:38;18.13;;;10.60;;
4074;SDS011;2052;53.522;9.806;2022-12-18T04:31:05;17.07;;;11.30;;
4074;SDS011;2052;53.522;9.806;2022-12-18T04:33:32;23.83;;;10.33;;
4074;SDS011;2052;53.522;9.806;2022-12-18T04:35:58;18.77;;;11.73;;
4074;SDS011;2052;53.522;9.806;2022-12-18T04:38:25;18.03;;;10.80;;
4074;SDS011;2052;53.522;9.806;2022-12-18T04:40:53;18.40;;;9.83;;
4074;SDS011;2052;53.522;9.806;2022-12-18T04:43:19;17.53;;;11.20;;
4074;SDS011;2052;53.522;9.806;2022-12-18T04:45:46;22.00;;;10.83;;
4074;SDS011;2052;53.522;9.806;2022-12-18T04:48:12;19.23;;;11.40;;
4074;SDS011;2052;53.522;9.806;2022-12-18T04:50:39;18.10;;;9.83;;
4074;SDS011;2052;53.522;9.806;2022-12-18T04:53:06;22.53;;;11.93;;
4074;SDS011;2052;53.522;9.806;2022-12-18T04:55:32;21.00;;;9.70;;
4074;SDS011;2052;53.522;9.806;2022-12-18T04:58:00;21.67;;;12.10;;
4074;SDS011;2052;53.522;9.806;2022-12-18T05:00:27;27.07;;;12.97;;
4074;SDS011;2052;53.522;9.806;2022-12-18T05:02:53;19.03;;;10.77;;
4074;SDS011;2052;53.522;9.806;2022-12-18T05:05:20;20.77;;;10.07;;
4074;SDS011;2052;53.522;9.806;2022-12-18T05:07:46;17.60;;;8.73;;
4074;SDS011;2052;53.522;9.806;2022-12-18T05:10:13;26.77;;;10.80;;
4074;SDS011;2052;53.522;9.806;2022-12-18T05:12:39;19.37;;;9.40;;
4074;SDS011;2052;53.522;9.806;2022-12-18T05:15:21;20.80;;;11.77;;
4074;SDS011;2052;53.522;9.806;2022-12-18T05:17:48;17.40;;;8.73;;
4074;SDS011;2052;53.522;9.806;2022-12-18T05:20:14;18.93;;;10.03;;
4074;SDS011;2052;53.522;9.806;2022-12-18T05:22:41;20.20;;;10.87;;
4074;SDS011;2052;53.522;9.806;2022-12-18T05:25:08;18.83;;;9.93;;
4074;SDS011;2052;53.522;9.806;2022-12-18T05:27:34;18.73;;;8.80;;
4074;SDS011;2052;53.522;9.806;2022-12-18T05:30:01;20.23;;;9.87;;
4074;SDS011;2052;53.522;9.806;2022-12-18T05:32:29;17.40;;;8.70;;
4074;SDS011;2052;53.522;9.806;2022-12-18T05:34:56;22.53;;;10.67;;
4074;SDS011;2052;53.522;9.806;2022-12-18T05:37:22;17.77;;;9.03;;
4074;SDS011;2052;53.522;9.806;2022-12-18T05:39:49;19.23;;;9.77;;
4074;SDS011;2052;53.522;9.806;2022-12-18T05:42:16;18.67;;;11.03;;
4074;SDS011;2052;53.522;9.806;2022-12-18T05:44:42;21.33;;;10.47;;
4074;SDS011;2052;53.522;9.806;2022-12-18T05:47:09;17.93;;;9.43;;
4074;SDS011;2052;53.522;9.806;2022-12-18T05:49:37;17.00;;;9.17;;
4074;SDS011;2052;53.522;9.806;2022-12-18T05:52:04;16.47;;;9.93;;
4074;SDS011;2052;53.522;9.806;2022-12-18T05:54:30;17.40;;;9.30;;
4074;SDS011;2052;53.522;9.806;2022-12-18T05:56:57;20.67;;;10.00;;
4074;SDS011;2052;53.522;9.806;2022-12-18T05:59:23;16.17;;;9.50;;
4074;SDS011;2052;53.522;9.806;2022-12-18T06:01:50;22.80;;;10.63;;
4074;SDS011;2052;53.522;9.806;2022-12-18T06:04:17;24.40;;;11.53;;
4074;SDS011;2052;53.522;9.806;2022-12-18T06:06:44;32.87;;;12.50;;
4074;SDS011;2052;53.522;9.806;2022-12-18T06:09:11;25.03;;;11.70;;
4074;SDS011;2052;53.522;9.806;2022-12-18T06:11:38;23.80;;;13.10;;
4074;SDS011;2052;53.522;9.806;2022-12-18T06:14:04;20.07;;;13.60;;
4074;SDS011;2052;53.522;9.806;2022-12-18T06:16:31;19.70;;;10.10;;
4074;SDS011;2052;53.522;9.806;2022-12-18T06:18:58;18.67;;;10.63;;
4074;SDS011;2052;53.522;9.806;2022-12-18T06:21:25;15.07;;;9.97;;
4074;SDS011;2052;53.522;9.806;2022-12-18T06:23:53;16.70;;;10.30;;
4074;SDS011;2052;53.522;9.806;2022-12-18T06:26:20;19.47;;;11.30;;
4074;SDS011;2052;53.522;9.806;2022-12-18T06:28:46;18.80;;;9.00;;
4074;SDS011;2052;53.522;9.806;2022-12-18T06:31:13;19.03;;;10.37;;
4074;SDS011;2052;53.522;9.806;2022-12-18T06:33:40;27.97;;;9.30;;
4074;SDS011;2052;53.522;9.806;2022-12-18T06:36:07;13.27;;;8.60;;
4074;SDS011;2052;53.522;9.806;2022-12-18T06:38:35;22.27;;;11.67;;
4074;SDS011;2052;53.522;9.806;2022-12-18T06:41:07;19.13;;;10.57;;
4074;SDS011;2052;53.522;9.806;2022-12-18T06:43:34;19.23;;;10.37;;
4074;SDS011;2052;53.522;9.806;2022-12-18T06:46:01;21.87;;;10.37;;
4074;SDS011;2052;53.522;9.806;2022-12-18T06:48:28;23.87;;;10.93;;
4074;SDS011;2052;53.522;9.806;2022-12-18T06:50:55;18.23;;;9.60;;
4074;SDS011;2052;53.522;9.806;2022-12-18T06:53:22;23.50;;;10.27;;
4074;SDS011;2052;53.522;9.806;2022-12-18T06:55:48;19.40;;;10.77;;
4074;SDS011;2052;53.522;9.806;2022-12-18T06:58:16;19.73;;;10.60;;
4074;SDS011;2052;53.522;9.806;2022-12-18T07:00:43;18.13;;;8.77;;
4074;SDS011;2052;53.522;9.806;2022-12-18T07:03:09;18.97;;;9.13;;
4074;SDS011;2052;53.522;9.806;2022-12-18T07:05:39;15.30;;;7.80;;
4074;SDS011;2052;53.522;9.806;2022-12-18T07:08:05;16.57;;;9.00;;
4074;SDS011;2052;53.522;9.806;2022-12-18T07:10:32;17.20;;;8.97;;
4074;SDS011;2052;53.522;9.806;2022-12-18T07:12:59;17.27;;;9.13;;
4074;SDS011;2052;53.522;9.806;2022-12-18T07:15:26;16.20;;;9.60;;
4074;SDS011;2052;53.522;9.806;2022-12-18T07:17:53;15.97;;;9.30;;
4074;SDS011;2052;53.522;9.806;2022-12-18T07:20:20;24.67;;;8.87;;
4074;SDS011;2052;53.522;9.806;2022-12-18T07:22:46;20.00;;;9.27;;
4074;SDS011;2052;53.522;9.806;2022-12-18T07:25:13;20.30;;;9.63;;
4074;SDS011;2052;53.522;9.806;2022-12-18T07:27:39;11.20;;;7.90;;
4074;SDS011;2052;53.522;9.806;2022-12-18T07:30:06;19.90;;;10.20;;
4074;SDS011;2052;53.522;9.806;2022-12-18T07:32:35;18.90;;;9.40;;
4074;SDS011;2052;53.522;9.806;2022-12-18T07:35:02;17.13;;;8.43;;
4074;SDS011;2052;53.522;9.806;2022-12-18T07:37:29;17.47;;;9.20;;
4074;SDS011;2052;53.522;9.806;2022-12-18T07:39:56;17.80;;;9.20;;
4074;SDS011;2052;53.522;9.806;2022-12-18T07:42:22;17.07;;;9.70;;
4074;SDS011;2052;53.522;9.806;2022-12-18T07:45:06;20.83;;;9.63;;
4074;SDS011;2052;53.522;9.806;2022-12-18T07:47:35;18.50;;;9.53;;
4074;SDS011;2052;53.522;9.806;2022-12-18T07:50:02;14.77;;;9.30;;
4074;SDS011;2052;53.522;9.806;2022-12-18T07:52:29;15.40;;;8.10;;
4074;SDS011;2052;53.522;9.806;2022-12-18T07:54:55;16.80;;;9.47;;
4074;SDS011;2052;53.522;9.806;2022-12-18T07:57:22;22.07;;;9.93;;
4074;SDS011;2052;53.522;9.806;2022-12-18T07:59:48;19.00;;;8.17;;
4074;SDS011;2052;53.522;9.806;2022-12-18T08:02:17;19.67;;;7.80;;
4074;SDS011;2052;53.522;9.806;2022-12-18T08:04:45;13.43;;;9.20;;
4074;SDS011;2052;53.522;9.806;2022-12-18T08:07:12;17.50;;;9.03;;
4074;SDS011;2052;53.522;9.806;2022-12-18T08:09:39;15.53;;;8.13;;
4074;SDS011;2052;53.522;9.806;2022-12-18T08:12:05;13.63;;;8.37;;
4074;SDS011;2052;53.522;9.806;2022-12-18T08:14:32;16.73;;;8.37;;
4074;SDS011;2052;53.522;9.806;2022-12-18T08:16:59;15.40;;;7.17;;
4074;SDS011;2052;53.522;9.806;2022-12-18T08:19:25;16.57;;;8.63;;
4074;SDS011;2052;53.522;9.806;2022-12-18T08:21:53;23.93;;;12.40;;
4074;SDS011;2052;53.522;9.806;2022-12-18T08:24:20;32.17;;;16.03;;
4074;SDS011;2052;53.522;9.806;2022-12-18T08:26:46;19.43;;;10.53;;
4074;SDS011;2052;53.522;9.806;2022-12-18T08:29:13;17.53;;;8.77;;
4074;SDS011;2052;53.522;9.806;2022-12-18T08:31:39;12.77;;;9.20;;
4074;SDS011;2052;53.522;9.806;2022-12-18T08:34:07;12.63;;;8.00;;
4074;SDS011;2052;53.522;9.806;2022-12-18T08:36:34;17.10;;;9.37;;
4074;SDS011;2052;53.522;9.806;2022-12-18T08:39:02;18.13;;;10.30;;
4074;SDS011;2052;53.522;9.806;2022-12-18T08:41:29;16.03;;;10.00;;
4074;SDS011;2052;53.522;9.806;2022-12-18T08:43:55;14.00;;;7.77;;
4074;SDS011;2052;53.522;9.806;2022-12-18T08:46:40;17.20;;;8.73;;
4074;SDS011;2052;53.522;9.806;2022-12-18T08:49:08;18.83;;;10.10;;
4074;SDS011;2052;53.522;9.806;2022-12-18T08:51:35;15.50;;;8.60;;
4074;SDS011;2052;53.522;9.806;2022-12-18T08:54:04;16.83;;;10.23;;
4074;SDS011;2052;53.522;9.806;2022-12-18T08:56:30;17.47;;;9.30;;
4074;SDS011;2052;53.522;9.806;2022-12-18T08:58:58;22.03;;;9.20;;
4074;SDS011;2052;53.522;9.806;2022-12-18T09:01:24;14.50;;;8.47;;
4074;SDS011;2052;53.522;9.806;2022-12-18T09:03:51;13.30;;;7.97;;
4074;SDS011;2052;53.522;9.806;2022-12-18T09:06:18;20.77;;;10.27;;
4074;SDS011;2052;53.522;9.806;2022-12-18T09:08:45;14.90;;;8.30;;
4074;SDS011;2052;53.522;9.806;2022-12-18T09:11:14;24.30;;;8.53;;
4074;SDS011;2052;53.522;9.806;2022-12-18T09:13:47;17.20;;;9.00;;
4074;SDS011;2052;53.522;9.806;2022-12-18T09:16:13;13.73;;;9.00;;
4074;SDS011;2052;53.522;9.806;2022-12-18T09:18:40;20.00;;;9.60;;
4074;SDS011;2052;53.522;9.806;2022-12-18T09:21:08;15.37;;;9.53;;
4074;SDS011;2052;53.522;9.806;2022-12-18T09:23:35;19.23;;;10.60;;
4074;SDS011;2052;53.522;9.806;2022-12-18T09:26:02;17.57;;;10.10;;
4074;SDS011;2052;53.522;9.806;2022-12-18T09:28:31;17.17;;;9.40;;
4074;SDS011;2052;53.522;9.806;2022-12-18T09:30:57;14.77;;;9.57;;
4074;SDS011;2052;53.522;9.806;2022-12-18T09:33:24;15.90;;;9.90;;
4074;SDS011;2052;53.522;9.806;2022-12-18T09:35:50;17.10;;;9.70;;
4074;SDS011;2052;53.522;9.806;2022-12-18T09:38:17;17.27;;;9.87;;
4074;SDS011;2052;53.522;9.806;2022-12-18T09:40:45;25.80;;;11.60;;
4074;SDS011;2052;53.522;9.806;2022-12-18T09:43:16;20.67;;;11.57;;
4074;SDS011;2052;53.522;9.806;2022-12-18T09:45:45;20.67;;;10.70;;
4074;SDS011;2052;53.522;9.806;2022-12-18T09:48:15;22.63;;;9.93;;
4074;SDS011;2052;53.522;9.806;2022-12-18T09:50:45;26.80;;;11.87;;
4074;SDS011;2052;53.522;9.806;2022-12-18T09:53:14;17.40;;;10.67;;
4074;SDS011;2052;53.522;9.806;2022-12-18T09:55:43;21.50;;;11.47;;
4074;SDS011;2052;53.522;9.806;2022-12-18T09:58:13;23.30;;;11.60;;
4074;SDS011;2052;53.522;9.806;2022-12-18T10:00:43;24.97;;;12.97;;
4074;SDS011;2052;53.522;9.806;2022-12-18T10:03:11;28.40;;;11.70;;
4074;SDS011;2052;53.522;9.806;2022-12-18T10:05:40;29.70;;;13.40;;
4074;SDS011;2052;53.522;9.806;2022-12-18T10:08:12;23.10;;;10.60;;
4074;SDS011;2052;53.522;9.806;2022-12-18T10:10:42;25.33;;;10.83;;
4074;SDS011;2052;53.522;9.806;2022-12-18T10:13:15;31.70;;;11.53;;
4074;SDS011;2052;53.522;9.806;2022-12-18T10:15:50;24.17;;;11.77;;
4074;SDS011;2052;53.522;9.806;2022-12-18T10:18:25;21.10;;;10.40;;
4074;SDS011;2052;53.522;9.806;2022-12-18T10:20:58;17.07;;;9.57;;
4074;SDS011;2052;53.522;9.806;2022-12-18T10:23:28;19.97;;;10.70;;
4074;SDS011;2052;53.522;9.806;2022-12-18T10:25:59;23.83;;;11.80;;
4074;SDS011;2052;53.522;9.806;2022-12-18T10:28:29;52.97;;;21.20;;
4074;SDS011;2052;53.522;9.806;2022-12-18T10:30:56;29.03;;;14.90;;
4074;SDS011;2052;53.522;9.806;2022-12-18T10:33:28;55.17;;;22.67;;
4074;SDS011;2052;53.522;9.806;2022-12-18T10:35:56;29.57;;;14.10;;
4074;SDS011;2052;53.522;9.806;2022-12-18T10:38:24;18.40;;;10.60;;
4074;SDS011;2052;53.522;9.806;2022-12-18T10:40:52;14.67;;;9.33;;
4074;SDS011;2052;53.522;9.806;2022-12-18T10:43:21;17.47;;;8.23;;
4074;SDS011;2052;53.522;9.806;2022-12-18T10:45:58;17.10;;;8.57;;
4074;SDS011;2052;53.522;9.806;2022-12-18T10:48:27;23.10;;;10.60;;
4074;SDS011;2052;53.522;9.806;2022-12-18T10:50:54;19.50;;;9.90;;
4074;SDS011;2052;53.522;9.806;2022-12-18T10:53:22;21.80;;;11.80;;
4074;SDS011;2052;53.522;9.806;2022-12-18T10:55:50;16.53;;;10.30;;
4074;SDS011;2052;53.522;9.806;2022-12-18T10:58:23;26.20;;;11.73;;
4074;SDS011;2052;53.522;9.806;2022-12-18T11:01:01;18.40;;;9.37;;
4074;SDS011;2052;53.522;9.806;2022-12-18T11:03:34;21.13;;;9.70;;
4074;SDS011;2052;53.522;9.806;2022-12-18T11:06:03;16.20;;;9.23;;
4074;SDS011;2052;53.522;9.806;2022-12-18T11:08:33;22.83;;;10.77;;
4074;SDS011;2052;53.522;9.806;2022-12-18T11:11:00;16.17;;;8.80;;
4074;SDS011;2052;53.522;9.806;2022-12-18T11:13:28;14.93;;;8.77;;
4074;SDS011;2052;53.522;9.806;2022-12-18T11:15:56;15.17;;;9.10;;
4074;SDS011;2052;53.522;9.806;2022-12-18T11:18:25;17.47;;;8.57;;
4074;SDS011;2052;53.522;9.806;2022-12-18T11:23:23;15.63;;;10.13;;
4074;SDS011;2052;53.522;9.806;2022-12-18T11:25:51;15.97;;;8.87;;
4074;SDS011;2052;53.522;9.806;2022-12-18T11:28:26;15.67;;;8.50;;
4074;SDS011;2052;53.522;9.806;2022-12-18T11:31:12;21.50;;;8.57;;
4074;SDS011;2052;53.522;9.806;2022-12-18T11:33:44;13.77;;;8.37;;
4074;SDS011;2052;53.522;9.806;2022-12-18T11:36:14;13.67;;;8.40;;
4074;SDS011;2052;53.522;9.806;2022-12-18T11:38:42;19.63;;;8.87;;
4074;SDS011;2052;53.522;9.806;2022-12-18T11:41:13;15.33;;;7.90;;
4074;SDS011;2052;53.522;9.806;2022-12-18T11:43:47;10.33;;;7.33;;
4074;SDS011;2052;53.522;9.806;2022-12-18T11:46:17;13.50;;;7.60;;
4074;SDS011;2052;53.522;9.806;2022-12-18T11:48:45;16.03;;;8.93;;
4074;SDS011;2052;53.522;9.806;2022-12-18T11:51:19;15.00;;;7.70;;
4074;SDS011;2052;53.522;9.806;2022-12-18T11:53:49;18.50;;;8.97;;
4074;SDS011;2052;53.522;9.806;2022-12-18T11:56:25;10.63;;;7.73;;
4074;SDS011;2052;53.522;9.806;2022-12-18T11:58:57;19.87;;;10.63;;
4074;SDS011;2052;53.522;9.806;2022-12-18T12:01:30;16.50;;;8.70;;
4074;SDS011;2052;53.522;9.806;2022-12-18T12:06:59;17.60;;;8.63;;
4074;SDS011;2052;53.522;9.806;2022-12-18T12:09:31;14.63;;;8.10;;
4074;SDS011;2052;53.522;9.806;2022-12-18T12:12:06;14.30;;;8.63;;
4074;SDS011;2052;53.522;9.806;2022-12-18T12:14:45;16.50;;;8.30;;
4074;SDS011;2052;53.522;9.806;2022-12-18T12:17:18;16.90;;;8.80;;
4074;SDS011;2052;53.522;9.806;2022-12-18T12:19:51;15.33;;;7.80;;
4074;SDS011;2052;53.522;9.806;2022-12-18T12:22:24;16.93;;;8.80;;
4074;SDS011;2052;53.522;9.806;2022-12-18T12:24:59;14.23;;;7.30;;
4074;SDS011;2052;53.522;9.806;2022-12-18T12:27:36;12.70;;;6.93;;
4074;SDS011;2052;53.522;9.806;2022-12-18T12:30:16;13.90;;;7.70;;
4074;SDS011;2052;53.522;9.806;2022-12-18T12:32:54;12.30;;;7.43;;
4074;SDS011;2052;53.522;9.806;2022-12-18T12:35:29;11.97;;;7.03;;
4074;SDS011;2052;53.522;9.806;2022-12-18T12:38:10;13.20;;;7.97;;
4074;SDS011;2052;53.522;9.806;2022-12-18T12:40:39;15.77;;;8.53;;
4074;SDS011;2052;53.522;9.806;2022-12-18T12:43:12;17.17;;;9.13;;
4074;SDS011;2052;53.522;9.806;2022-12-18T12:45:46;17.83;;;9.97;;
4074;SDS011;2052;53.522;9.806;2022-12-18T12:48:16;20.03;;;11.03;;
4074;SDS011;2052;53.522;9.806;2022-12-18T12:50:47;38.90;;;10.27;;
4074;SDS011;2052;53.522;9.806;2022-12-18T12:53:19;14.57;;;9.07;;
4074;SDS011;2052;53.522;9.806;2022-12-18T12:55:49;16.30;;;9.77;;
4074;SDS011;2052;53.522;9.806;2022-12-18T12:58:18;19.10;;;9.37;;
4074;SDS011;2052;53.522;9.806;2022-12-18T13:00:49;17.87;;;9.07;;
4074;SDS011;2052;53.522;9.806;2022-12-18T13:03:24;19.43;;;9.50;;
4074;SDS011;2052;53.522;9.806;2022-12-18T13:05:58;17.03;;;10.37;;
4074;SDS011;2052;53.522;9.806;2022-12-18T13:08:29;18.93;;;10.57;;
4074;SDS011;2052;53.522;9.806;2022-12-18T13:10:57;20.80;;;9.87;;
4074;SDS011;2052;53.522;9.806;2022-12-18T13:13:47;24.43;;;12.00;;
4074;SDS011;2052;53.522;9.806;2022-12-18T13:16:16;19.27;;;12.37;;
4074;SDS011;2052;53.522;9.806;2022-12-18T13:18:48;25.70;;;12.57;;
4074;SDS011;2052;53.522;9.806;2022-12-18T13:21:17;19.80;;;11.60;;
4074;SDS011;2052;53.522;9.806;2022-12-18T13:23:50;29.20;;;15.00;;
4074;SDS011;2052;53.522;9.806;2022-12-18T13:26:29;27.47;;;14.13;;
4074;SDS011;2052;53.522;9.806;2022-12-18T13:28:58;25.93;;;12.57;;
4074;SDS011;2052;53.522;9.806;2022-12-18T13:34:24;25.60;;;12.63;;
4074;SDS011;2052;53.522;9.806;2022-12-18T13:36:51;31.77;;;14.80;;
4074;SDS011;2052;53.522;9.806;2022-12-18T13:39:24;25.43;;;13.70;;
4074;SDS011;2052;53.522;9.806;2022-12-18T13:48:04;28.40;;;13.13;;
4074;SDS011;2052;53.522;9.806;2022-12-18T13:50:36;21.40;;;12.40;;
4074;SDS011;2052;53.522;9.806;2022-12-18T13:53:05;34.03;;;12.97;;
4074;SDS011;2052;53.522;9.806;2022-12-18T13:55:33;25.00;;;13.33;;
4074;SDS011;2052;53.522;9.806;2022-12-18T13:58:03;24.47;;;14.00;;
4074;SDS011;2052;53.522;9.806;2022-12-18T14:00:30;28.07;;;12.90;;
4074;SDS011;2052;53.522;9.806;2022-12-18T14:02:57;29.77;;;13.00;;
4074;SDS011;2052;53.522;9.806;2022-12-18T14:05:24;29.20;;;13.70;;
4074;SDS011;2052;53.522;9.806;2022-12-18T14:07:52;27.20;;;14.20;;
4074;SDS011;2052;53.522;9.806;2022-12-18T14:10:20;28.30;;;13.10;;
4074;SDS011;2052;53.522;9.806;2022-12-18T14:12:48;31.60;;;13.60;;
4074;SDS011;2052;53.522;9.806;2022-12-18T14:15:30;38.43;;;17.43;;
4074;SDS011;2052;53.522;9.806;2022-12-18T14:18:00;42.57;;;17.47;;
4074;SDS011;2052;53.522;9.806;2022-12-18T14:20:28;41.20;;;19.77;;
4074;SDS011;2052;53.522;9.806;2022-12-18T14:22:56;44.97;;;19.93;;
4074;SDS011;2052;53.522;9.806;2022-12-18T14:25:24;44.07;;;17.47;;
4074;SDS011;2052;53.522;9.806;2022-12-18T14:27:53;32.43;;;16.87;;
4074;SDS011;2052;53.522;9.806;2022-12-18T14:30:31;34.87;;;17.27;;
4074;SDS011;2052;53.522;9.806;2022-12-18T14:33:02;40.63;;;20.30;;
4074;SDS011;2052;53.522;9.806;2022-12-18T14:35:29;34.50;;;16.20;;
4074;SDS011;2052;53.522;9.806;2022-12-18T14:38:08;40.37;;;17.50;;
4074;SDS011;2052;53.522;9.806;2022-12-18T14:40:36;35.30;;;15.70;;
4074;SDS011;2052;53.522;9.806;2022-12-18T14:43:04;39.33;;;16.90;;
4074;SDS011;2052;53.522;9.806;2022-12-18T14:45:34;35.90;;;14.90;;
4074;SDS011;2052;53.522;9.806;2022-12-18T14:48:05;33.20;;;17.33;;
4074;SDS011;2052;53.522;9.806;2022-12-18T14:50:32;27.97;;;14.80;;
4074;SDS011;2052;53.522;9.806;2022-12-18T14:52:58;38.23;;;16.97;;
4074;SDS011;2052;53.522;9.806;2022-12-18T14:55:25;35.97;;;15.60;;
4074;SDS011;2052;53.522;9.806;2022-12-18T14:57:52;38.13;;;16.87;;
4074;SDS011;2052;53.522;9.806;2022-12-18T15:00:22;34.27;;;15.47;;
4074;SDS011;2052;53.522;9.806;2022-12-18T15:02:51;27.43;;;14.20;;
4074;SDS011;2052;53.522;9.806;2022-12-18T15:05:20;43.97;;;16.57;;
4074;SDS011;2052;53.522;9.806;2022-12-18T15:07:51;39.83;;;16.50;;
4074;SDS011;2052;53.522;9.806;2022-12-18T15:10:19;41.53;;;18.20;;
4074;SDS011;2052;53.522;9.806;2022-12-18T15:12:47;32.40;;;18.33;;
4074;SDS011;2052;53.522;9.806;2022-12-18T15:18:12;33.03;;;16.13;;
4074;SDS011;2052;53.522;9.806;2022-12-18T15:20:42;33.03;;;16.10;;
4074;SDS011;2052;53.522;9.806;2022-12-18T15:23:13;43.30;;;16.93;;
4074;SDS011;2052;53.522;9.806;2022-12-18T15:25:41;33.60;;;15.33;;
4074;SDS011;2052;53.522;9.806;2022-12-18T15:33:36;39.17;;;17.77;;